National Weather Service Raw Text Product

Displaying AFOS PIL: TAFDSM Received: 2018-05-17 05:20 UTC


366 
FTUS43 KDMX 170520
TAFDSM
TAF
KDSM 170520Z 1706/1806 VRB03KT P6SM SKC
     FM171700 13007KT P6SM FEW250=

366 
FTUS43 KDMX 170520
TAFDSM
TAF
KDSM 170520Z 1706/1806 VRB03KT P6SM SKC
     FM171700 13007KT P6SM FEW250=